If you wish to contribute or participate in the discussions about articles you are invited to join SKYbrary as a registered user

 Actions

General Ulpiano Paez Airport

From SKYbrary Wiki

SESA
Airport
ICAO: SESA – IATA: SNC
Summary
Name General Ulpiano Paez Airport
Region South America and Caribbean
Territory Ecuador EC.gif
Location , Guayas
Serving Salinas
Elevation 5.486 m
18 ft
18 ft5.486 m
Type medium airport
Coordinates 2° 12' 17.98" S, 80° 59' 19.96" W
Runways
Designator Length Width Surface ROPS
8/26 1110 m3,641.732 ft
40 m131.234 ft
ASP /
13/31 2437 m7,995.407 ft
30 m98.425 ft
ASP /


METAR
Observation SESA 102100Z 24010KT CAVOK 27/23 Q1008
Station Salinas / General Ulpiano Paez
Date/Time 10 April 2019 21:00:00
Wind direction 240°
Wind speed 10 kts
Lowest cloud amount clouds and visibility OK
Temperature 27°C
Dew point 23°C
Humidity 78%
QNH 1008 hPa
Weather condition n/a